Time;durP1;ratioP1;P1;durP2;ratioP2;P2;SDS_P1;SDS_P2;PMS_P1;PMS_P2;Temp;Humidity;BMP_temperature;BMP_pressure;BME280_temperature;BME280_humidity;BME280_pressure;Samples;Min_cycle;Max_cycle;Signal;HPM_P1;HPM_P2
2021/07/02 00:01:39;;;;;;;21.17;11.13;;;14.90;97.80;;;;;;5033685;28;20501;-67
2021/07/02 00:04:06;;;;;;;22.27;10.73;;;14.90;97.80;;;;;;5033947;28;20108;-67
2021/07/02 00:06:32;;;;;;;25.23;12.05;;;14.90;97.80;;;;;;5033492;28;20054;-67
2021/07/02 00:08:58;;;;;;;21.50;12.85;;;14.90;97.80;;;;;;5033853;28;20030;-68
2021/07/02 00:11:23;;;;;;;22.58;11.50;;;14.90;97.80;;;;;;5033666;28;20032;-67
2021/07/02 00:13:49;;;;;;;25.25;12.82;;;14.90;97.80;;;;;;5033140;28;20053;-68
2021/07/02 00:16:18;;;;;;;20.88;11.50;;;14.90;97.80;;;;;;5033458;28;20047;-68
2021/07/02 00:18:43;;;;;;;16.90;11.40;;;14.90;97.80;;;;;;5033621;28;20022;-68
2021/07/02 00:21:10;;;;;;;20.88;11.48;;;14.90;97.80;;;;;;5033600;28;20128;-67
2021/07/02 00:23:35;;;;;;;24.52;12.07;;;14.80;97.80;;;;;;5033489;28;20095;-67
2021/07/02 00:26:01;;;;;;;19.90;11.88;;;14.80;97.80;;;;;;5033395;28;20112;-67
2021/07/02 00:28:26;;;;;;;20.63;11.93;;;14.70;97.80;;;;;;5033346;28;20033;-67
2021/07/02 00:30:52;;;;;;;20.92;12.18;;;14.70;97.80;;;;;;5033331;28;20037;-67
2021/07/02 00:33:18;;;;;;;17.67;11.10;;;14.70;97.80;;;;;;5033443;28;20030;-67
2021/07/02 00:35:44;;;;;;;19.58;11.98;;;14.60;97.80;;;;;;5033521;28;20502;-67
2021/07/02 00:38:09;;;;;;;19.35;10.88;;;14.60;97.90;;;;;;5033245;28;20052;-67
2021/07/02 00:40:35;;;;;;;21.30;12.27;;;14.50;97.90;;;;;;5031963;28;20029;-67
2021/07/02 00:43:02;;;;;;;22.15;12.30;;;14.50;98.00;;;;;;5033142;28;20427;-68
2021/07/02 00:45:27;;;;;;;19.70;11.65;;;14.40;98.00;;;;;;5032477;28;20025;-67
2021/07/02 00:47:53;;;;;;;25.00;11.85;;;14.40;98.00;;;;;;5033189;28;20021;-68
2021/07/02 00:50:18;;;;;;;24.15;12.82;;;14.30;98.00;;;;;;5033111;28;20056;-68
2021/07/02 00:52:44;;;;;;;23.08;12.48;;;14.30;98.10;;;;;;5033328;28;20480;-67
2021/07/02 00:55:11;;;;;;;20.17;13.07;;;14.20;98.10;;;;;;5033216;28;20060;-68
2021/07/02 00:57:37;;;;;;;17.27;11.43;;;14.20;98.20;;;;;;5033466;28;20032;-67
2021/07/02 01:00:06;;;;;;;24.42;12.55;;;14.10;98.20;;;;;;5031989;28;20387;-67
2021/07/02 01:02:32;;;;;;;19.35;11.27;;;14.00;98.20;;;;;;5033046;28;20368;-67
2021/07/02 01:04:58;;;;;;;21.25;12.95;;;14.00;98.30;;;;;;5032885;28;20020;-67
2021/07/02 01:07:23;;;;;;;21.48;12.45;;;13.80;98.30;;;;;;5033009;28;20026;-67
2021/07/02 01:09:49;;;;;;;22.15;13.13;;;13.80;98.40;;;;;;5033067;28;20037;-67
2021/07/02 01:12:15;;;;;;;22.13;11.73;;;13.70;98.40;;;;;;5031823;28;20029;-67
2021/07/02 01:14:41;;;;;;;21.95;13.63;;;13.70;98.50;;;;;;5032744;28;20506;-68
2021/07/02 01:17:06;;;;;;;25.20;13.75;;;13.70;98.50;;;;;;5033190;28;20052;-67
2021/07/02 01:19:32;;;;;;;22.48;12.13;;;13.70;98.60;;;;;;5032830;28;20034;-68
2021/07/02 01:21:57;;;;;;;20.08;12.02;;;13.60;98.60;;;;;;5031476;28;20022;-67
2021/07/02 01:24:23;;;;;;;22.05;13.00;;;13.60;98.60;;;;;;5032957;28;20052;-67
2021/07/02 01:26:51;;;;;;;24.50;13.18;;;13.60;98.60;;;;;;5032884;28;20029;-67
2021/07/02 01:29:17;;;;;;;19.42;13.35;;;13.60;98.70;;;;;;5032722;28;20022;-68
2021/07/02 01:31:42;;;;;;;22.30;13.52;;;13.60;98.70;;;;;;5032994;28;20060;-67
2021/07/02 01:34:08;;;;;;;22.58;12.40;;;13.60;98.80;;;;;;5033098;28;20026;-68
2021/07/02 01:36:34;;;;;;;28.02;13.40;;;13.70;98.80;;;;;;5032916;28;20363;-68
2021/07/02 01:38:59;;;;;;;25.77;13.77;;;13.70;98.80;;;;;;5032726;28;20033;-68
2021/07/02 01:41:25;;;;;;;26.27;13.95;;;13.80;98.80;;;;;;5032537;28;20037;-68
2021/07/02 01:43:50;;;;;;;24.58;13.45;;;13.80;98.80;;;;;;5031340;28;20414;-68
2021/07/02 01:46:16;;;;;;;29.05;15.18;;;13.80;98.80;;;;;;5032700;28;20147;-68
2021/07/02 01:48:43;;;;;;;26.30;14.10;;;13.80;98.80;;;;;;5032901;28;20032;-68
2021/07/02 01:51:09;;;;;;;25.92;14.05;;;13.90;98.80;;;;;;5032689;28;20029;-68
2021/07/02 01:53:34;;;;;;;26.17;13.88;;;13.90;98.80;;;;;;5031217;28;20025;-68
2021/07/02 01:56:00;;;;;;;26.63;15.07;;;13.90;98.80;;;;;;5032723;28;20057;-67
2021/07/02 01:58:25;;;;;;;25.33;14.43;;;13.90;98.80;;;;;;5035950;28;20032;-68
2021/07/02 02:00:51;;;;;;;26.70;14.65;;;13.80;98.80;;;;;;5036200;28;20033;-68
2021/07/02 02:03:17;;;;;;;27.45;14.35;;;13.80;98.80;;;;;;5035697;28;20033;-68
2021/07/02 02:05:42;;;;;;;22.55;13.68;;;13.80;98.80;;;;;;5036023;28;20026;-68
2021/07/02 02:08:08;;;;;;;25.63;14.48;;;13.90;98.80;;;;;;5035918;28;20017;-68
2021/07/02 02:10:34;;;;;;;23.23;13.27;;;13.80;98.80;;;;;;5035957;28;20112;-68
2021/07/02 02:13:00;;;;;;;22.02;13.80;;;13.80;98.80;;;;;;5035781;28;20111;-68
2021/07/02 02:15:26;;;;;;;21.23;12.63;;;13.80;98.80;;;;;;5035353;28;20053;-68
2021/07/02 02:17:51;;;;;;;29.45;14.30;;;13.80;98.80;;;;;;5035982;28;20025;-67
2021/07/02 02:20:17;;;;;;;23.40;13.00;;;13.80;98.80;;;;;;5036054;28;20033;-68
2021/07/02 02:22:43;;;;;;;24.17;13.10;;;13.80;99.10;;;;;;5035846;28;20053;-68
2021/07/02 02:25:09;;;;;;;23.52;13.30;;;13.80;98.80;;;;;;5035734;28;20033;-68
2021/07/02 02:27:35;;;;;;;22.00;13.75;;;13.70;98.70;;;;;;5035444;28;20079;-68
2021/07/02 02:30:02;;;;;;;24.70;13.40;;;13.70;98.70;;;;;;5035336;28;20029;-68
2021/07/02 02:32:28;;;;;;;27.83;13.50;;;13.70;98.80;;;;;;5035546;28;20021;-68
2021/07/02 02:34:53;;;;;;;22.80;13.40;;;13.70;98.80;;;;;;5035504;28;20026;-68
2021/07/02 02:37:19;;;;;;;23.17;12.85;;;13.70;98.80;;;;;;5035342;28;20037;-68
2021/07/02 02:39:45;;;;;;;25.27;13.65;;;13.70;99.10;;;;;;5035347;28;20029;-68
2021/07/02 02:42:10;;;;;;;24.55;14.18;;;13.70;98.80;;;;;;5035194;28;20092;-68
2021/07/02 02:44:36;;;;;;;24.35;14.63;;;13.70;98.80;;;;;;5035206;28;20165;-68
2021/07/02 02:47:02;;;;;;;23.17;13.82;;;13.70;98.80;;;;;;5035284;28;20026;-68
2021/07/02 02:49:27;;;;;;;24.90;13.73;;;13.70;98.80;;;;;;5035375;28;20044;-68
2021/07/02 02:51:53;;;;;;;23.42;14.13;;;13.70;98.80;;;;;;5035172;28;20025;-68
2021/07/02 02:54:18;;;;;;;28.20;14.88;;;13.70;98.80;;;;;;5035192;28;20379;-68
2021/07/02 02:59:28;;;;;;;25.42;13.52;;;13.70;98.80;;;;;;5035263;28;20075;-68
2021/07/02 03:01:53;;;;;;;30.15;15.85;;;13.60;98.80;;;;;;5034874;28;20033;-68
2021/07/02 03:04:19;;;;;;;25.85;14.65;;;13.60;98.80;;;;;;5033671;28;20483;-68
2021/07/02 03:06:45;;;;;;;24.35;13.75;;;13.60;98.80;;;;;;5034832;28;20021;-68
2021/07/02 03:09:10;;;;;;;23.70;14.60;;;13.50;98.80;;;;;;5033181;28;20430;-68
2021/07/02 03:11:36;;;;;;;24.73;13.63;;;13.50;98.80;;;;;;5034684;28;20048;-67
2021/07/02 03:14:01;;;;;;;26.02;14.73;;;13.50;98.80;;;;;;5034342;28;20045;-68
2021/07/02 03:16:27;;;;;;;30.05;15.27;;;13.50;98.80;;;;;;5034581;28;20021;-68
2021/07/02 03:18:52;;;;;;;24.05;15.63;;;13.40;98.80;;;;;;5034959;28;20033;-68
2021/07/02 03:21:18;;;;;;;25.23;15.27;;;13.40;98.80;;;;;;5034547;28;20073;-67
2021/07/02 03:23:44;;;;;;;29.92;14.50;;;13.40;98.90;;;;;;5034504;28;20407;-68
2021/07/02 03:26:10;;;;;;;22.85;15.35;;;13.40;98.90;;;;;;5034271;28;20021;-68
2021/07/02 03:28:36;;;;;;;37.67;16.33;;;13.30;98.90;;;;;;5034590;28;20057;-68
2021/07/02 03:31:02;;;;;;;29.23;15.23;;;13.30;98.90;;;;;;5034680;28;20053;-67
2021/07/02 03:33:28;;;;;;;31.88;16.45;;;13.30;98.90;;;;;;5034373;28;20075;-68
2021/07/02 03:35:53;;;;;;;31.52;16.65;;;13.30;98.90;;;;;;5034673;28;20029;-68
2021/07/02 03:38:19;;;;;;;28.23;16.23;;;13.20;98.80;;;;;;5034687;28;20090;-68
2021/07/02 03:40:45;;;;;;;32.55;18.17;;;13.20;98.80;;;;;;5034280;28;20053;-67
2021/07/02 03:43:10;;;;;;;26.10;16.95;;;13.10;98.90;;;;;;5033981;28;20029;-67
2021/07/02 03:45:36;;;;;;;34.15;18.15;;;13.10;98.90;;;;;;5034208;28;20482;-68
2021/07/02 03:48:01;;;;;;;31.88;17.23;;;13.00;98.90;;;;;;5034264;28;20510;-68
2021/07/02 03:50:27;;;;;;;35.88;19.63;;;13.00;99.00;;;;;;5034029;28;20392;-68
2021/07/02 03:52:53;;;;;;;35.60;18.80;;;13.00;99.00;;;;;;5034191;28;20033;-68
2021/07/02 03:55:18;;;;;;;26.50;17.20;;;12.90;99.00;;;;;;5033979;28;20179;-67
2021/07/02 03:57:44;;;;;;;31.75;17.58;;;12.90;99.00;;;;;;5033773;28;20025;-67
2021/07/02 04:00:10;;;;;;;30.95;17.65;;;12.80;99.10;;;;;;5033948;28;20036;-67
2021/07/02 04:02:35;;;;;;;36.95;17.08;;;12.90;99.20;;;;;;5033884;28;20035;-68
2021/07/02 04:05:01;;;;;;;37.80;19.02;;;12.80;99.20;;;;;;5033768;28;20022;-67
2021/07/02 04:07:28;;;;;;;32.78;17.75;;;12.80;99.30;;;;;;5032445;28;20029;-67
2021/07/02 04:09:53;;;;;;;37.78;17.60;;;12.80;99.30;;;;;;5033772;28;20101;-67
2021/07/02 04:12:19;;;;;;;42.13;19.20;;;12.80;99.50;;;;;;5033436;28;20579;-67
2021/07/02 04:14:44;;;;;;;33.67;17.10;;;12.80;99.40;;;;;;5032996;28;20411;-67
2021/07/02 04:17:10;;;;;;;29.15;18.02;;;12.90;99.40;;;;;;5033815;28;20065;-67
2021/07/02 04:19:36;;;;;;;40.35;19.45;;;12.90;99.40;;;;;;5032979;28;20056;-66
2021/07/02 04:22:03;;;;;;;36.63;16.95;;;12.90;99.40;;;;;;5033322;28;20383;-67
2021/07/02 04:24:29;;;;;;;36.58;17.80;;;13.00;99.40;;;;;;5033566;28;20383;-66
2021/07/02 04:26:55;;;;;;;38.45;18.45;;;13.10;99.40;;;;;;5033072;28;20029;-67
2021/07/02 04:29:21;;;;;;;32.65;18.10;;;13.10;99.40;;;;;;5033355;28;20026;-67
2021/07/02 04:31:46;;;;;;;38.83;19.02;;;13.20;99.40;;;;;;5033654;28;20034;-67
2021/07/02 04:34:12;;;;;;;28.00;16.08;;;13.30;99.30;;;;;;5033582;28;20037;-67
2021/07/02 04:36:37;;;;;;;32.85;18.52;;;13.30;99.30;;;;;;5033258;28;20044;-67
2021/07/02 04:39:04;;;;;;;31.55;16.83;;;13.40;99.30;;;;;;5033348;28;20086;-67
2021/07/02 04:41:30;;;;;;;27.80;16.52;;;13.50;99.30;;;;;;5033262;28;20083;-67
2021/07/02 04:43:55;;;;;;;31.08;16.63;;;13.50;99.50;;;;;;5033357;28;20473;-67
2021/07/02 04:46:21;;;;;;;32.88;17.90;;;13.60;99.20;;;;;;5033161;28;20036;-67
2021/07/02 04:48:47;;;;;;;27.75;15.93;;;13.70;99.10;;;;;;5033535;28;20095;-67
2021/07/02 04:51:12;;;;;;;27.30;15.48;;;13.70;99.00;;;;;;5033148;28;20028;-67
2021/07/02 04:53:39;;;;;;;27.92;16.90;;;13.80;99.00;;;;;;5033182;28;20036;-67
2021/07/02 04:56:05;;;;;;;28.98;15.77;;;13.90;99.10;;;;;;5033034;28;20021;-67
2021/07/02 04:58:31;;;;;;;23.92;14.52;;;14.00;99.20;;;;;;5031605;28;20048;-67
2021/07/02 05:00:57;;;;;;;23.98;15.10;;;14.20;99.00;;;;;;5014984;28;20022;-67
2021/07/02 05:03:22;;;;;;;24.63;14.57;;;14.30;98.80;;;;;;5030249;28;20041;-67
2021/07/02 05:05:48;;;;;;;22.30;14.18;;;14.30;98.60;;;;;;5033169;28;20075;-67
2021/07/02 05:08:14;;;;;;;22.15;13.38;;;14.30;98.60;;;;;;5033013;28;20369;-67
2021/07/02 05:10:42;;;;;;;18.45;12.45;;;14.40;98.70;;;;;;5032932;28;20095;-67
2021/07/02 05:13:08;;;;;;;21.83;13.23;;;14.60;98.70;;;;;;5032990;28;20105;-67
2021/07/02 05:15:34;;;;;;;23.67;14.43;;;14.80;98.90;;;;;;5031470;28;20128;-67
2021/07/02 05:17:59;;;;;;;19.67;12.02;;;15.20;99.10;;;;;;5033136;28;20022;-67
2021/07/02 05:20:25;;;;;;;17.45;13.38;;;15.70;99.10;;;;;;5033213;28;20034;-67
2021/07/02 05:22:50;;;;;;;19.92;12.77;;;16.20;98.80;;;;;;5033071;28;20017;-67
2021/07/02 05:25:18;;;;;;;16.60;11.07;;;16.70;98.20;;;;;;5031605;28;20079;-67
2021/07/02 05:27:44;;;;;;;21.90;11.50;;;17.10;97.50;;;;;;5033196;28;20100;-67
2021/07/02 05:30:10;;;;;;;15.30;10.05;;;17.50;97.20;;;;;;5032830;28;20073;-67
2021/07/02 05:32:35;;;;;;;21.00;11.43;;;17.70;95.50;;;;;;5034219;28;20068;-67
2021/07/02 05:35:01;;;;;;;18.35;11.10;;;17.60;94.60;;;;;;5036673;28;20049;-66
2021/07/02 05:37:27;;;;;;;16.35;10.90;;;17.50;94.40;;;;;;5036392;28;20022;-67
2021/07/02 05:39:52;;;;;;;19.70;12.50;;;17.30;94.00;;;;;;5036319;28;20364;-67
2021/07/02 05:42:22;;;;;;;17.45;10.85;;;17.10;94.20;;;;;;5036347;28;20057;-67
2021/07/02 05:44:48;;;;;;;16.40;11.32;;;17.20;94.30;;;;;;5036725;28;20096;-67
2021/07/02 05:47:14;;;;;;;14.18;9.80;;;17.40;94.20;;;;;;5034935;28;20033;-67
2021/07/02 05:49:39;;;;;;;17.45;10.68;;;17.70;94.00;;;;;;5036281;28;20491;-67
2021/07/02 05:52:05;;;;;;;18.35;11.60;;;17.90;93.20;;;;;;5036234;28;20106;-67
2021/07/02 05:54:31;;;;;;;18.48;11.50;;;18.00;92.90;;;;;;5036156;28;20105;-67
2021/07/02 05:56:56;;;;;;;16.65;10.75;;;18.00;92.10;;;;;;5036025;28;20044;-67
2021/07/02 05:59:22;;;;;;;17.05;10.57;;;17.90;91.60;;;;;;5036165;28;20021;-67
2021/07/02 06:01:47;;;;;;;20.75;11.63;;;17.80;91.60;;;;;;5036194;28;20108;-67
2021/07/02 06:04:13;;;;;;;19.33;10.88;;;17.80;91.70;;;;;;5034752;28;20021;-67
2021/07/02 06:06:38;;;;;;;16.55;10.10;;;17.90;91.60;;;;;;5035809;28;20025;-67
2021/07/02 06:09:04;;;;;;;16.33;10.48;;;18.00;91.40;;;;;;5035991;28;20373;-67
2021/07/02 06:11:29;;;;;;;18.27;10.73;;;18.10;91.10;;;;;;5035720;28;20467;-67
2021/07/02 06:13:55;;;;;;;19.92;12.65;;;18.00;91.00;;;;;;5035702;28;20404;-67
2021/07/02 06:16:21;;;;;;;19.65;10.95;;;18.00;90.80;;;;;;5035569;28;20494;-67
2021/07/02 06:18:46;;;;;;;17.83;10.60;;;18.00;90.60;;;;;;5035871;28;20376;-67
2021/07/02 06:21:12;;;;;;;18.70;10.25;;;18.00;90.80;;;;;;5034375;28;20029;-67
2021/07/02 06:23:38;;;;;;;20.92;11.82;;;18.00;90.50;;;;;;5035775;28;20052;-67
2021/07/02 06:26:06;;;;;;;20.55;12.23;;;18.00;90.40;;;;;;5035460;28;20384;-67
2021/07/02 06:28:32;;;;;;;16.98;11.57;;;17.90;90.40;;;;;;5034356;28;20052;-67
2021/07/02 06:30:58;;;;;;;17.42;11.30;;;17.80;90.40;;;;;;5035706;28;20025;-67
2021/07/02 06:33:25;;;;;;;18.10;10.93;;;17.70;90.60;;;;;;5035543;28;20373;-67
2021/07/02 06:35:51;;;;;;;19.45;11.85;;;17.90;90.80;;;;;;5035510;28;20033;-67
2021/07/02 06:38:16;;;;;;;16.63;11.00;;;17.90;90.90;;;;;;5035435;28;20033;-67
2021/07/02 06:40:43;;;;;;;16.65;11.20;;;18.00;90.60;;;;;;5034998;28;20028;-67
2021/07/02 06:43:08;;;;;;;22.17;12.68;;;18.00;90.60;;;;;;5034385;28;20029;-67
2021/07/02 06:45:34;;;;;;;18.30;11.85;;;17.90;90.40;;;;;;5035341;28;20025;-67
2021/07/02 06:48:02;;;;;;;19.02;11.43;;;17.70;90.70;;;;;;5035119;28;20029;-67
2021/07/02 06:50:30;;;;;;;24.58;11.90;;;17.70;90.80;;;;;;5035209;28;20117;-67
2021/07/02 06:52:56;;;;;;;20.75;11.18;;;17.80;90.80;;;;;;5035204;28;20057;-67
2021/07/02 06:55:22;;;;;;;20.20;11.85;;;17.80;90.70;;;;;;5034994;28;20096;-67
2021/07/02 06:57:48;;;;;;;19.50;11.65;;;17.90;90.90;;;;;;5035152;28;20025;-67
2021/07/02 07:00:17;;;;;;;15.00;10.43;;;18.10;90.80;;;;;;5034957;28;20040;-67
2021/07/02 07:02:43;;;;;;;19.98;11.60;;;18.20;90.70;;;;;;5034851;28;20021;-67
2021/07/02 07:05:09;;;;;;;19.50;11.82;;;18.30;90.50;;;;;;5034684;28;20025;-67
2021/07/02 07:07:34;;;;;;;19.40;11.27;;;18.30;90.10;;;;;;5034864;28;20136;-67
2021/07/02 07:10:00;;;;;;;21.70;12.00;;;18.10;90.30;;;;;;5034641;28;20036;-67
2021/07/02 07:12:25;;;;;;;19.60;12.73;;;18.00;90.50;;;;;;5034923;28;20041;-67
2021/07/02 07:14:51;;;;;;;19.70;12.38;;;18.10;90.80;;;;;;5033242;28;20056;-67
2021/07/02 07:17:18;;;;;;;20.38;11.77;;;18.20;90.80;;;;;;5034695;28;20124;-66
2021/07/02 07:19:45;;;;;;;20.10;11.63;;;18.40;90.70;;;;;;5034575;28;20076;-67
2021/07/02 07:22:10;;;;;;;21.33;11.93;;;18.40;90.50;;;;;;5034693;28;20105;-66
2021/07/02 07:24:36;;;;;;;20.58;12.55;;;18.30;90.40;;;;;;5034392;28;20500;-67
2021/07/02 07:27:01;;;;;;;20.38;12.05;;;18.30;90.80;;;;;;5034465;28;20024;-67
2021/07/02 07:29:30;;;;;;;20.88;11.93;;;18.20;90.40;;;;;;5034707;28;20024;-67
2021/07/02 07:31:56;;;;;;;22.50;12.52;;;18.20;90.50;;;;;;5034444;28;20104;-67
2021/07/02 07:37:10;;;;;;;20.75;12.57;;;18.40;90.50;;;;;;5023216;28;20061;-67
2021/07/02 07:39:37;;;;;;;20.30;12.63;;;18.50;90.20;;;;;;5034452;28;20027;-67
2021/07/02 07:42:03;;;;;;;20.63;12.77;;;18.50;90.00;;;;;;5034263;28;20384;-67
2021/07/02 07:44:29;;;;;;;26.50;12.77;;;18.40;90.00;;;;;;5032835;28;20025;-67
2021/07/02 07:46:55;;;;;;;17.77;11.70;;;18.30;90.10;;;;;;5034073;28;20025;-67
2021/07/02 07:49:21;;;;;;;20.73;13.15;;;18.30;90.30;;;;;;5033947;28;20056;-67
2021/07/02 07:51:56;;;;;;;21.70;13.02;;;18.10;90.40;;;;;;5033867;28;20021;-67
2021/07/02 07:54:22;;;;;;;23.35;14.57;;;18.00;90.50;;;;;;5034006;28;20030;-67
2021/07/02 07:56:50;;;;;;;23.63;14.93;;;18.00;90.50;;;;;;5033767;28;20055;-67
2021/07/02 07:59:19;;;;;;;27.05;15.57;;;17.90;90.70;;;;;;5034044;28;20033;-67
2021/07/02 08:01:45;;;;;;;24.70;15.20;;;18.00;90.80;;;;;;5033792;28;20491;-67
2021/07/02 08:04:13;;;;;;;28.98;17.10;;;18.00;90.90;;;;;;5033704;28;20025;-67
2021/07/02 08:06:39;;;;;;;30.00;17.95;;;18.10;90.90;;;;;;5033660;28;20017;-67
2021/07/02 08:09:05;;;;;;;30.02;17.58;;;18.10;90.70;;;;;;5033933;28;20364;-67
2021/07/02 08:11:30;;;;;;;33.28;18.85;;;18.10;91.00;;;;;;5033605;28;20112;-67
2021/07/02 08:13:56;;;;;;;29.33;18.92;;;18.10;90.70;;;;;;5033456;28;20175;-67
2021/07/02 08:16:21;;;;;;;36.22;20.75;;;18.10;90.80;;;;;;5033779;28;20025;-67
2021/07/02 08:18:47;;;;;;;29.98;19.45;;;18.20;90.80;;;;;;5033583;28;20034;-67
2021/07/02 08:21:12;;;;;;;29.65;18.85;;;18.30;90.70;;;;;;5033868;28;20264;-67
2021/07/02 08:23:38;;;;;;;26.83;17.60;;;18.50;90.60;;;;;;5033545;28;20025;-67
2021/07/02 08:26:03;;;;;;;28.98;18.23;;;18.60;90.30;;;;;;5033678;28;20028;-67
2021/07/02 08:31:13;;;;;;;28.83;17.42;;;18.80;90.00;;;;;;5033486;28;20041;-67
2021/07/02 08:33:39;;;;;;;29.92;15.82;;;18.80;90.00;;;;;;5033262;28;20025;-67
2021/07/02 08:36:04;;;;;;;25.70;17.42;;;18.90;90.00;;;;;;5033179;28;20434;-67
2021/07/02 08:38:30;;;;;;;27.13;17.55;;;19.00;89.40;;;;;;5033460;28;20475;-67
2021/07/02 08:40:55;;;;;;;22.40;15.57;;;18.80;89.00;;;;;;5031944;28;20026;-67
2021/07/02 08:43:21;;;;;;;26.35;16.48;;;18.80;89.40;;;;;;5033395;28;20022;-67
2021/07/02 08:45:47;;;;;;;28.80;17.17;;;18.70;89.00;;;;;;5033238;28;20033;-67
2021/07/02 08:48:21;;;;;;;25.95;16.00;;;18.70;88.90;;;;;;5033351;28;20087;-67
2021/07/02 08:50:47;;;;;;;26.77;15.38;;;18.70;89.40;;;;;;5033077;28;20476;-67
2021/07/02 08:53:12;;;;;;;25.17;16.52;;;18.70;89.50;;;;;;5033207;28;20091;-67
2021/07/02 08:55:39;;;;;;;22.52;14.90;;;18.80;89.30;;;;;;5031801;28;20030;-67
2021/07/02 08:58:15;;;;;;;23.58;15.05;;;18.80;89.30;;;;;;5033211;28;20026;-67
2021/07/02 09:00:42;;;;;;;22.40;13.88;;;18.80;89.20;;;;;;5032903;28;20028;-67
2021/07/02 09:03:32;;;;;;;21.63;14.55;;;18.80;89.90;;;;;;5033295;28;20113;-67
2021/07/02 09:06:18;;;;;;;22.30;14.68;;;18.90;89.10;;;;;;5027661;28;20034;-67
2021/07/02 09:09:06;;;;;;;22.60;14.70;;;19.00;89.20;;;;;;5037228;28;20029;-67
2021/07/02 09:11:34;;;;;;;26.73;15.23;;;19.00;89.30;;;;;;5037261;28;20033;-67
2021/07/02 09:14:00;;;;;;;22.75;14.15;;;19.10;89.40;;;;;;5036850;28;20506;-67
2021/07/02 09:16:31;;;;;;;25.73;16.60;;;19.20;89.20;;;;;;5036815;28;20468;-67
2021/07/02 09:18:57;;;;;;;23.73;14.85;;;19.60;88.90;;;;;;5037073;28;20030;-67
2021/07/02 09:21:28;;;;;;;26.27;15.07;;;19.90;88.10;;;;;;5036869;28;20036;-67
2021/07/02 09:23:57;;;;;;;24.92;15.38;;;20.10;87.10;;;;;;5036691;28;20028;-67
2021/07/02 09:26:39;;;;;;;24.85;15.10;;;20.10;86.70;;;;;;5036912;28;20022;-67
2021/07/02 09:29:22;;;;;;;22.60;14.55;;;20.20;86.20;;;;;;5036769;28;20021;-67
2021/07/02 09:31:59;;;;;;;23.00;14.82;;;20.20;86.00;;;;;;5035540;28;20033;-67
2021/07/02 09:34:48;;;;;;;24.08;14.48;;;20.20;86.30;;;;;;5036579;28;20045;-67
2021/07/02 09:37:25;;;;;;;24.25;15.38;;;20.40;86.20;;;;;;5036806;28;20400;-67
2021/07/02 09:39:51;;;;;;;24.45;15.25;;;20.40;85.30;;;;;;5036540;28;20017;-67
2021/07/02 09:42:28;;;;;;;23.85;15.82;;;20.40;85.30;;;;;;5036814;28;20076;-67
2021/07/02 09:45:16;;;;;;;20.65;15.35;;;20.40;85.50;;;;;;5035151;28;20468;-67
2021/07/02 09:47:43;;;;;;;24.73;14.57;;;20.30;85.90;;;;;;5036409;28;20026;-67
2021/07/02 09:50:42;;;;;;;25.52;15.95;;;20.30;85.90;;;;;;5036419;28;20029;-67
2021/07/02 09:53:11;;;;;;;26.10;16.60;;;20.20;85.90;;;;;;5013496;28;20042;-67
2021/07/02 09:55:51;;;;;;;25.40;16.08;;;20.00;85.60;;;;;;5036170;28;20029;-67
2021/07/02 09:58:19;;;;;;;26.25;17.88;;;19.80;86.40;;;;;;5036051;28;20034;-68
2021/07/02 10:00:49;;;;;;;27.30;17.52;;;19.60;86.70;;;;;;5036196;28;20029;-67
2021/07/02 10:03:16;;;;;;;26.65;18.33;;;19.50;87.40;;;;;;5035992;28;20025;-67
2021/07/02 10:05:46;;;;;;;27.13;17.88;;;19.50;87.90;;;;;;5035910;28;20026;-67
2021/07/02 10:08:13;;;;;;;27.85;17.52;;;19.50;88.30;;;;;;5035743;28;20018;-67
2021/07/02 10:10:38;;;;;;;27.65;17.30;;;19.50;88.50;;;;;;5036259;28;20029;-67
2021/07/02 10:13:05;;;;;;;30.25;18.38;;;19.60;88.70;;;;;;5036050;28;20034;-67
2021/07/02 10:15:31;;;;;;;31.67;17.52;;;19.60;88.50;;;;;;5034400;28;20407;-67
2021/07/02 10:17:58;;;;;;;28.67;16.50;;;19.60;88.60;;;;;;5035926;28;20030;-67
2021/07/02 10:20:26;;;;;;;26.10;17.02;;;19.70;89.00;;;;;;5035888;28;20089;-67
2021/07/02 10:22:55;;;;;;;22.08;15.10;;;19.80;88.90;;;;;;5034554;28;20112;-67
2021/07/02 10:25:23;;;;;;;24.88;16.65;;;19.90;88.80;;;;;;5034436;28;20022;-67
2021/07/02 10:27:49;;;;;;;24.17;16.40;;;20.00;88.20;;;;;;5035610;28;20071;-67
2021/07/02 10:30:15;;;;;;;22.08;14.65;;;20.00;88.20;;;;;;5035599;28;20041;-67
2021/07/02 10:32:41;;;;;;;23.42;15.40;;;20.00;88.30;;;;;;5035502;28;20022;-67
2021/07/02 10:35:11;;;;;;;23.02;15.27;;;20.10;88.20;;;;;;5035522;28;20029;-67
2021/07/02 10:37:37;;;;;;;25.35;15.70;;;20.10;88.30;;;;;;5035646;28;20061;-67
2021/07/02 10:40:39;;;;;;;24.42;14.55;;;20.10;88.50;;;;;;5035337;28;20068;-67
2021/07/02 10:43:13;;;;;;;23.57;13.27;;;20.10;88.70;;;;;;5035462;28;20025;-67
2021/07/02 10:46:07;;;;;;;25.42;14.13;;;19.90;88.70;;;;;;5035615;28;20057;-67
2021/07/02 10:48:47;;;;;;;23.50;15.07;;;19.60;89.50;;;;;;5035204;28;20017;-67
2021/07/02 10:51:42;;;;;;;23.00;14.68;;;19.40;90.30;;;;;;5033595;28;20179;-67
2021/07/02 10:54:13;;;;;;;27.60;17.02;;;19.20;90.70;;;;;;5035252;28;20076;-67
2021/07/02 10:57:00;;;;;;;28.77;17.48;;;19.10;91.00;;;;;;5035111;28;20029;-67
2021/07/02 10:59:41;;;;;;;25.60;16.95;;;19.10;91.40;;;;;;5035260;28;20075;-67
2021/07/02 11:02:09;;;;;;;30.30;16.77;;;19.20;91.60;;;;;;5034469;28;20043;-67
2021/07/02 11:04:36;;;;;;;24.77;15.43;;;19.30;91.60;;;;;;5034956;28;20021;-67
2021/07/02 11:07:24;;;;;;;26.27;16.08;;;19.40;91.50;;;;;;5034891;28;20049;-67
2021/07/02 11:09:56;;;;;;;26.88;16.27;;;19.40;91.30;;;;;;5034919;28;20083;-67
2021/07/02 11:12:31;;;;;;;23.92;15.60;;;19.40;91.40;;;;;;5034782;28;20476;-67
2021/07/02 11:15:30;;;;;;;26.17;15.80;;;19.40;91.30;;;;;;5034613;28;20107;-67
2021/07/02 11:17:52;;;;;;;27.70;16.27;;;19.30;91.20;;;;;;5033629;28;20434;-67
2021/07/02 11:20:17;;;;;;;26.05;15.48;;;19.30;91.40;;;;;;5034711;28;20025;-67
2021/07/02 11:22:57;;;;;;;26.38;16.33;;;19.30;91.40;;;;;;5034623;28;20540;-67
2021/07/02 11:25:33;;;;;;;26.25;15.73;;;19.30;91.50;;;;;;5034706;28;20041;-67
2021/07/02 11:28:05;;;;;;;25.85;15.55;;;19.40;91.40;;;;;;5034563;28;20018;-67
2021/07/02 11:33:00;;;;;;;22.23;14.85;;;19.20;91.40;;;;;;5035034;28;19916;-67
2021/07/02 11:35:29;;;;;;;26.17;15.73;;;19.10;91.50;;;;;;5034276;28;20082;-67
2021/07/02 11:38:13;;;;;;;26.67;16.83;;;19.20;91.60;;;;;;5034911;28;20036;-67
2021/07/02 11:40:39;;;;;;;27.95;17.20;;;19.20;91.70;;;;;;5033016;28;20452;-67
2021/07/02 11:43:07;;;;;;;29.48;18.38;;;19.20;91.70;;;;;;5034409;28;20092;-67
2021/07/02 11:45:39;;;;;;;33.00;19.35;;;19.10;91.70;;;;;;5034093;28;20087;-67
2021/07/02 11:48:06;;;;;;;26.25;16.05;;;19.10;91.90;;;;;;5034217;28;20435;-67
2021/07/02 11:50:43;;;;;;;30.13;16.90;;;19.20;91.90;;;;;;5033943;28;20033;-67
2021/07/02 11:53:25;;;;;;;26.05;16.20;;;19.30;91.80;;;;;;5032860;28;20091;-67
2021/07/02 11:56:20;;;;;;;29.17;17.20;;;19.40;91.80;;;;;;5034061;28;20037;-67
2021/07/02 11:58:59;;;;;;;24.33;14.98;;;19.70;91.80;;;;;;5033295;28;20037;-67
2021/07/02 12:01:37;;;;;;;26.75;16.25;;;20.00;91.50;;;;;;5034096;28;20029;-67
2021/07/02 12:04:09;;;;;;;29.40;17.17;;;20.10;91.20;;;;;;5033890;28;20025;-67
2021/07/02 12:06:41;;;;;;;23.88;16.90;;;20.20;90.80;;;;;;5032565;28;20052;-67
2021/07/02 12:09:12;;;;;;;26.00;16.83;;;20.30;90.70;;;;;;5033964;28;20022;-67
2021/07/02 12:11:50;;;;;;;24.58;16.20;;;20.40;90.60;;;;;;5033745;28;20424;-67
2021/07/02 12:14:20;;;;;;;25.63;16.33;;;20.50;90.70;;;;;;5033560;28;20041;-67
2021/07/02 12:16:49;;;;;;;26.90;17.50;;;20.80;90.30;;;;;;5033684;28;20057;-67
2021/07/02 12:19:17;;;;;;;24.27;17.02;;;21.00;89.70;;;;;;5033482;28;20060;-67
2021/07/02 12:22:00;;;;;;;25.05;16.20;;;21.20;89.20;;;;;;5033490;28;20033;-67
2021/07/02 12:24:32;;;;;;;25.42;17.45;;;21.40;88.50;;;;;;5033504;28;20079;-67
2021/07/02 12:27:00;;;;;;;23.80;16.15;;;21.60;88.80;;;;;;5033500;28;20017;-67
2021/07/02 12:29:27;;;;;;;24.08;16.10;;;21.70;87.70;;;;;;5033994;28;20472;-67
2021/07/02 12:32:06;;;;;;;22.17;16.52;;;21.90;87.10;;;;;;5033274;28;20498;-67
2021/07/02 12:34:39;;;;;;;23.17;16.00;;;21.80;86.10;;;;;;5033684;28;20048;-67
2021/07/02 12:37:16;;;;;;;25.65;16.42;;;21.70;85.70;;;;;;5033510;28;20468;-67
2021/07/02 12:39:42;;;;;;;24.85;15.40;;;21.70;86.10;;;;;;5033315;28;20425;-67
2021/07/02 12:42:37;;;;;;;25.10;16.92;;;21.80;86.40;;;;;;5032458;28;20036;-67
2021/07/02 12:45:09;;;;;;;24.23;16.25;;;21.90;86.30;;;;;;5033564;28;20025;-67